Time;durP1;ratioP1;P1;durP2;ratioP2;P2;SDS_P1;SDS_P2;PMS_P1;PMS_P2;Temp;Humidity;BMP_temperature;BMP_pressure;BME280_temperature;BME280_humidity;BME280_pressure;Samples;Min_cycle;Max_cycle;Signal;HPM_P1;HPM_P2
2024/03/06 00:01:28;;;;;;;19.15;13.00;;;;;;;7.68;100.00;100514.97;4964108;28;20050;-72
2024/03/06 00:03:59;;;;;;;19.67;12.18;;;;;;;7.67;100.00;100518.53;4981120;28;20062;-71
2024/03/06 00:06:28;;;;;;;17.45;12.20;;;;;;;7.65;100.00;100523.84;4980764;28;20046;-72
2024/03/06 00:08:55;;;;;;;17.55;11.90;;;;;;;7.63;100.00;100524.78;4995917;28;20058;-71
2024/03/06 00:11:24;;;;;;;19.05;12.07;;;;;;;7.55;100.00;100527.69;4988374;28;20050;-72
2024/03/06 00:13:52;;;;;;;17.27;11.80;;;;;;;7.52;100.00;100533.06;4989493;28;20069;-71
2024/03/06 00:16:21;;;;;;;19.60;12.32;;;;;;;7.50;100.00;100523.47;4972938;28;20370;-71
2024/03/06 00:18:48;;;;;;;17.38;11.90;;;;;;;7.49;100.00;100543.69;5001007;28;20115;-71
2024/03/06 00:21:18;;;;;;;18.38;12.77;;;;;;;7.45;100.00;100533.28;4983919;28;20058;-72
2024/03/06 00:23:47;;;;;;;17.03;13.20;;;;;;;7.40;100.00;100536.94;4981189;28;20047;-71
2024/03/06 00:26:15;;;;;;;18.67;12.48;;;;;;;7.33;100.00;100529.28;5000661;28;20486;-71
2024/03/06 00:28:43;;;;;;;17.20;11.88;;;;;;;7.32;100.00;100536.31;4984814;28;20043;-71
2024/03/06 00:31:11;;;;;;;18.00;12.25;;;;;;;7.29;100.00;100539.03;4986109;28;20093;-71
2024/03/06 00:33:38;;;;;;;18.88;12.15;;;;;;;7.25;100.00;100544.44;4975740;28;20374;-71
2024/03/06 00:36:07;;;;;;;17.58;12.40;;;;;;;7.19;100.00;100537.63;4986653;28;20069;-71
2024/03/06 00:38:37;;;;;;;17.33;12.18;;;;;;;7.14;100.00;100542.16;4980246;28;20101;-72
2024/03/06 00:41:05;;;;;;;16.88;11.60;;;;;;;7.09;100.00;100549.31;4991203;28;20077;-69
2024/03/06 00:43:33;;;;;;;20.65;12.23;;;;;;;7.06;100.00;100554.69;4988808;28;20791;-71
2024/03/06 00:46:02;;;;;;;18.05;12.43;;;;;;;7.02;100.00;100553.06;4988265;28;20049;-71
2024/03/06 00:48:30;;;;;;;16.55;12.20;;;;;;;6.98;100.00;100560.19;4959131;28;20043;-71
2024/03/06 00:50:58;;;;;;;17.95;12.52;;;;;;;6.91;100.00;100545.50;4984034;28;20050;-72
2024/03/06 00:53:27;;;;;;;18.15;12.57;;;;;;;6.89;100.00;100554.34;4980099;28;20039;-72
2024/03/06 00:55:56;;;;;;;17.60;12.30;;;;;;;6.83;100.00;100557.13;4969751;28;20061;-71
2024/03/06 00:58:25;;;;;;;19.25;13.10;;;;;;;6.78;100.00;100557.25;4978659;28;20046;-72
2024/03/06 01:00:55;;;;;;;18.25;12.10;;;;;;;6.75;100.00;100551.25;4983340;28;20054;-70
2024/03/06 01:03:23;;;;;;;17.40;12.23;;;;;;;6.70;100.00;100554.00;4965679;28;20114;-71
2024/03/06 01:05:53;;;;;;;17.63;12.13;;;;;;;6.68;100.00;100566.34;4985888;28;20432;-71
2024/03/06 01:08:24;;;;;;;17.67;12.05;;;;;;;6.66;100.00;100569.00;4983878;28;20050;-72
2024/03/06 01:10:53;;;;;;;18.25;12.60;;;;;;;6.56;100.00;100554.41;4975827;28;20051;-71
2024/03/06 01:13:22;;;;;;;19.35;13.20;;;;;;;6.58;100.00;100565.75;4976814;28;20058;-70
2024/03/06 01:15:51;;;;;;;20.00;12.73;;;;;;;6.53;100.00;100562.38;4979010;28;20039;-71
2024/03/06 01:18:22;;;;;;;16.33;11.75;;;;;;;6.53;100.00;100566.75;4988410;28;20039;-71
2024/03/06 01:20:50;;;;;;;16.35;11.55;;;;;;;6.48;100.00;100559.00;4994756;28;20050;-72
2024/03/06 01:23:18;;;;;;;19.02;12.38;;;;;;;6.51;100.00;100569.44;4970799;28;20083;-72
2024/03/06 01:25:46;;;;;;;17.42;12.27;;;;;;;6.49;100.00;100560.72;4995335;28;20138;-72
2024/03/06 01:28:15;;;;;;;17.63;12.07;;;;;;;6.33;100.00;100541.00;4973530;28;20495;-72
2024/03/06 01:30:44;;;;;;;18.45;12.77;;;;;;;6.36;100.00;100540.94;4973833;28;20591;-72
2024/03/06 01:33:12;;;;;;;20.20;12.82;;;;;;;6.43;100.00;100563.53;4983219;28;20046;-72
2024/03/06 01:35:42;;;;;;;18.80;12.30;;;;;;;6.39;100.00;100551.38;4980463;28;20050;-70
2024/03/06 01:38:10;;;;;;;19.38;13.10;;;;;;;6.41;100.00;100556.59;4987431;28;20047;-72
2024/03/06 01:40:38;;;;;;;18.83;12.90;;;;;;;6.33;100.00;100549.75;4971135;28;20558;-72
2024/03/06 01:43:06;;;;;;;20.20;13.10;;;;;;;6.32;100.00;100557.69;4971421;28;20051;-71
2024/03/06 01:45:34;;;;;;;18.13;12.32;;;;;;;6.30;100.00;100560.34;4984273;28;20043;-70
2024/03/06 01:48:06;;;;;;;21.42;13.18;;;;;;;6.30;100.00;100562.13;4966647;28;21503;-72
2024/03/06 01:50:35;;;;;;;19.45;13.23;;;;;;;6.24;100.00;100562.31;4985452;28;20069;-72
2024/03/06 01:53:03;;;;;;;17.27;12.38;;;;;;;6.29;100.00;100573.56;4985743;28;20090;-72
2024/03/06 01:55:41;;;;;;;17.48;12.23;;;;;;;6.30;100.00;100572.63;4981525;28;20053;-70
2024/03/06 01:58:13;;;;;;;23.15;14.90;;;;;;;6.25;100.00;100562.25;4983461;28;20051;-71
2024/03/06 02:00:41;;;;;;;21.35;13.80;;;;;;;6.31;100.00;100571.72;4990961;28;20057;-73
2024/03/06 02:03:12;;;;;;;22.65;14.90;;;;;;;6.25;100.00;100566.66;4987089;28;20034;-72
2024/03/06 02:05:43;;;;;;;21.38;13.73;;;;;;;6.26;100.00;100576.28;4974820;28;20057;-72
2024/03/06 02:08:12;;;;;;;20.83;14.60;;;;;;;6.28;100.00;100571.84;4977339;28;20081;-72
2024/03/06 02:10:44;;;;;;;19.35;13.82;;;;;;;6.26;100.00;100577.13;4978331;28;20047;-71
2024/03/06 02:13:14;;;;;;;21.05;13.43;;;;;;;6.26;100.00;100576.28;4969043;28;20065;-71
2024/03/06 02:15:45;;;;;;;22.17;14.15;;;;;;;6.26;100.00;100573.66;4993493;28;20053;-73
2024/03/06 02:18:14;;;;;;;19.65;13.55;;;;;;;6.20;100.00;100568.53;4972403;28;20053;-72
2024/03/06 02:20:45;;;;;;;18.30;12.90;;;;;;;6.20;100.00;100573.78;4984113;28;20049;-70
2024/03/06 02:23:17;;;;;;;23.27;13.07;;;;;;;6.15;100.00;100566.00;4983356;28;20050;-72
2024/03/06 02:25:47;;;;;;;18.65;13.40;;;;;;;6.18;100.00;100591.38;4979073;28;20055;-71
2024/03/06 02:28:18;;;;;;;18.00;12.52;;;;;;;6.13;100.00;100578.38;4974894;28;20047;-71
2024/03/06 02:30:48;;;;;;;18.40;12.70;;;;;;;6.10;100.00;100582.84;4995923;28;20049;-71
2024/03/06 02:33:17;;;;;;;18.23;11.77;;;;;;;6.06;100.00;100586.44;4996361;28;20050;-74
2024/03/06 02:35:47;;;;;;;20.77;12.38;;;;;;;6.02;100.00;100585.63;4983160;28;20563;-70
2024/03/06 02:38:16;;;;;;;17.35;11.93;;;;;;;5.98;100.00;100579.59;4982022;28;20079;-72
2024/03/06 02:40:44;;;;;;;17.50;12.32;;;;;;;5.93;100.00;100578.88;4991352;28;20038;-72
2024/03/06 02:43:12;;;;;;;20.30;12.95;;;;;;;5.83;100.00;100574.69;4986717;28;20050;-72
2024/03/06 02:45:41;;;;;;;21.48;13.85;;;;;;;5.82;100.00;100577.38;4983797;28;20046;-70
2024/03/06 02:48:10;;;;;;;18.90;13.35;;;;;;;5.77;100.00;100581.88;4980089;28;20086;-69
2024/03/06 02:50:38;;;;;;;19.65;13.13;;;;;;;5.70;100.00;100582.91;4997020;28;20054;-72
2024/03/06 02:53:09;;;;;;;19.88;13.48;;;;;;;5.61;100.00;100581.38;4980409;28;20113;-71
2024/03/06 02:55:37;;;;;;;19.00;13.00;;;;;;;5.41;100.00;100563.44;5004943;28;20067;-71
2024/03/06 02:58:09;;;;;;;20.42;13.52;;;;;;;5.41;100.00;100570.47;5000152;28;20074;-71
2024/03/06 03:00:41;;;;;;;22.15;13.25;;;;;;;5.40;100.00;100579.25;4990871;28;20109;-71
2024/03/06 03:03:08;;;;;;;;;;;;;;;5.37;100.00;100589.81;4994600;28;20034;-71
2024/03/06 03:05:36;;;;;;;18.52;12.60;;;;;;;5.34;100.00;100589.91;5007843;28;19960;-71
2024/03/06 03:08:06;;;;;;;23.38;13.93;;;;;;;5.26;100.00;100580.41;4969421;28;20053;-70
2024/03/06 03:10:35;;;;;;;19.57;14.13;;;;;;;5.30;100.00;100589.09;5001757;28;20046;-70
2024/03/06 03:13:04;;;;;;;20.00;13.80;;;;;;;5.32;100.00;100586.44;4983372;28;20050;-71
2024/03/06 03:15:33;;;;;;;20.65;13.35;;;;;;;5.31;100.00;100588.22;5002941;28;20050;-71
2024/03/06 03:18:01;;;;;;;23.33;14.20;;;;;;;5.31;100.00;100592.59;4995638;28;20047;-72
2024/03/06 03:20:29;;;;;;;20.42;13.13;;;;;;;5.30;100.00;100591.72;4982181;28;20038;-72
2024/03/06 03:22:59;;;;;;;19.92;13.30;;;;;;;5.33;100.00;100593.44;5004016;28;20057;-76
2024/03/06 03:25:27;;;;;;;19.52;13.60;;;;;;;5.36;100.00;100595.97;4984519;28;20050;-72
2024/03/06 03:27:58;;;;;;;17.65;12.57;;;;;;;5.35;100.00;100592.50;4969537;28;20124;-71
2024/03/06 03:30:27;;;;;;;20.00;13.25;;;;;;;5.35;100.00;100599.50;4982260;28;20047;-70
2024/03/06 03:32:57;;;;;;;21.30;12.73;;;;;;;5.36;100.00;100598.59;4985182;28;20050;-72
2024/03/06 03:35:25;;;;;;;19.65;13.32;;;;;;;5.38;100.00;100599.41;4986948;28;20579;-71
2024/03/06 03:37:53;;;;;;;20.80;13.05;;;;;;;5.41;100.00;100601.97;4992090;28;20050;-71
2024/03/06 03:40:22;;;;;;;19.17;13.27;;;;;;;5.44;100.00;100600.16;4994644;28;20071;-71
2024/03/06 03:42:51;;;;;;;21.00;12.77;;;;;;;5.36;100.00;100583.69;4991290;28;20184;-71
2024/03/06 03:45:21;;;;;;;19.08;12.98;;;;;;;5.40;100.00;100587.13;4991667;28;20106;-72
2024/03/06 03:47:49;;;;;;;17.05;12.38;;;;;;;5.54;100.00;100604.28;4987808;28;20062;-74
2024/03/06 03:50:17;;;;;;;17.63;12.90;;;;;;;5.44;100.00;100594.03;4987970;28;20106;-71
2024/03/06 03:52:45;;;;;;;18.38;12.52;;;;;;;5.46;100.00;100611.50;4990602;28;20053;-71
2024/03/06 03:55:13;;;;;;;18.50;12.80;;;;;;;5.42;100.00;100611.59;4988821;28;20421;-72
2024/03/06 03:57:41;;;;;;;17.65;11.73;;;;;;;5.36;100.00;100617.81;4989800;28;20051;-72
2024/03/06 04:00:12;;;;;;;19.45;12.45;;;;;;;5.26;100.00;100608.44;4950653;28;20066;-72
2024/03/06 04:02:42;;;;;;;17.92;11.70;;;;;;;5.22;100.00;100618.13;4989321;28;20098;-71
2024/03/06 04:05:10;;;;;;;18.38;12.02;;;;;;;5.21;100.00;100620.78;4989253;28;20073;-70
2024/03/06 04:07:38;;;;;;;17.27;12.10;;;;;;;5.21;100.00;100624.28;4976077;28;20051;-72
2024/03/06 04:10:10;;;;;;;18.60;12.85;;;;;;;5.17;100.00;100611.28;4978998;28;20039;-72
2024/03/06 04:12:40;;;;;;;19.23;12.68;;;;;;;5.18;100.00;100619.13;4993429;28;20115;-70
2024/03/06 04:15:09;;;;;;;19.65;12.68;;;;;;;5.24;100.00;100620.72;4981334;28;20074;-71
2024/03/06 04:17:37;;;;;;;19.55;13.50;;;;;;;5.23;100.00;100624.25;4977479;28;20055;-72
2024/03/06 04:20:10;;;;;;;19.13;12.70;;;;;;;5.28;100.00;100623.28;4961116;28;20150;-72
2024/03/06 04:22:39;;;;;;;19.98;12.07;;;;;;;5.29;100.00;100627.63;4982228;28;20138;-70
2024/03/06 04:25:07;;;;;;;20.30;12.23;;;;;;;5.31;100.00;100626.72;4980038;28;20042;-72
2024/03/06 04:27:35;;;;;;;18.33;12.60;;;;;;;5.31;100.00;100632.84;4992345;28;21366;-72
2024/03/06 04:30:04;;;;;;;20.27;12.50;;;;;;;5.30;100.00;100628.50;4973651;28;20054;-71
2024/03/06 04:32:32;;;;;;;17.55;11.57;;;;;;;5.25;100.00;100628.56;4976333;28;20065;-72
2024/03/06 04:35:00;;;;;;;17.75;11.68;;;;;;;5.34;100.00;100637.16;4993199;28;20088;-73
2024/03/06 04:37:30;;;;;;;18.25;11.20;;;;;;;5.34;100.00;100640.66;4979090;28;20046;-72
2024/03/06 04:39:59;;;;;;;16.25;11.32;;;;;;;5.31;100.00;100638.09;4987417;28;20066;-72
2024/03/06 04:42:29;;;;;;;18.75;12.10;;;;;;;5.28;100.00;100635.53;4963019;28;20515;-72
2024/03/06 04:44:57;;;;;;;15.40;11.70;;;;;;;5.35;100.00;100642.41;4987401;28;20039;-72
2024/03/06 04:47:25;;;;;;;17.33;11.82;;;;;;;5.42;100.00;100650.97;4994223;28;20039;-72
2024/03/06 04:49:58;;;;;;;19.15;11.77;;;;;;;5.39;100.00;100635.28;4970013;28;20057;-71
2024/03/06 04:52:30;;;;;;;17.88;11.38;;;;;;;5.37;100.00;100629.19;4971758;28;20045;-71
2024/03/06 04:55:02;;;;;;;15.23;11.73;;;;;;;5.51;100.00;100650.81;4971723;28;20102;-71
2024/03/06 04:57:32;;;;;;;16.45;11.27;;;;;;;5.51;100.00;100646.38;4951924;28;20061;-72
2024/03/06 05:00:04;;;;;;;17.48;11.88;;;;;;;5.50;100.00;100654.31;4967352;28;20093;-72
2024/03/06 05:02:34;;;;;;;15.40;11.48;;;;;;;5.49;100.00;100658.72;4971733;28;20142;-71
2024/03/06 05:05:19;;;;;;;16.30;10.20;;;;;;;5.47;100.00;100657.88;4990066;28;20073;-74
2024/03/06 05:08:06;;;;;;;19.23;11.63;;;;;;;5.49;100.00;100663.09;4991193;28;20068;-72
2024/03/06 05:10:53;;;;;;;14.90;10.48;;;;;;;5.49;100.00;100665.72;4969937;28;20043;-72
2024/03/06 05:13:39;;;;;;;14.98;10.25;;;;;;;5.53;100.00;100680.50;4989558;28;20091;-71
2024/03/06 05:16:26;;;;;;;17.73;10.68;;;;;;;5.52;100.00;100682.25;4984588;28;20043;-72
2024/03/06 05:19:11;;;;;;;15.75;10.95;;;;;;;5.54;100.00;100682.22;4984695;28;20035;-71
2024/03/06 05:21:57;;;;;;;14.80;11.07;;;;;;;5.56;100.00;100685.69;4995614;28;20026;-71
2024/03/06 05:24:43;;;;;;;18.35;11.32;;;;;;;5.58;100.00;100684.75;5008637;28;20051;-73
2024/03/06 05:27:31;;;;;;;15.98;11.20;;;;;;;5.61;100.00;100686.47;4995531;28;20049;-71
2024/03/06 05:30:17;;;;;;;18.38;11.00;;;;;;;5.63;100.00;100677.66;4982263;28;20047;-72
2024/03/06 05:33:03;;;;;;;15.15;10.75;;;;;;;5.66;100.00;100689.00;4982436;28;20141;-72
2024/03/06 05:35:48;;;;;;;15.70;11.18;;;;;;;5.66;100.00;100687.22;4977952;28;20047;-72
2024/03/06 05:38:34;;;;;;;15.23;11.00;;;;;;;5.54;100.00;100672.59;4975755;28;20076;-72
2024/03/06 05:41:23;;;;;;;18.17;11.02;;;;;;;5.64;100.00;100695.16;4975878;28;20057;-73
2024/03/06 05:44:09;;;;;;;17.65;11.13;;;;;;;5.66;100.00;100699.50;4969291;28;20526;-72
2024/03/06 05:46:55;;;;;;;17.27;11.10;;;;;;;5.64;100.00;100705.66;4968820;28;20120;-72
2024/03/06 05:49:41;;;;;;;17.10;11.60;;;;;;;5.60;100.00;100698.72;4979868;28;20078;-73
2024/03/06 05:52:28;;;;;;;17.17;11.57;;;;;;;5.59;100.00;100690.88;4969327;28;20050;-71
2024/03/06 05:55:14;;;;;;;20.80;12.20;;;;;;;5.59;100.00;100707.50;4981690;28;20047;-73
2024/03/06 05:58:02;;;;;;;16.35;11.50;;;;;;;5.55;100.00;100715.47;4974035;28;20230;-73
2024/03/06 06:00:40;;;;;;;21.98;13.02;;;;;;;5.53;100.00;100717.28;4963856;28;20125;-72
2024/03/06 06:03:10;;;;;;;17.73;12.10;;;;;;;5.51;100.00;100724.34;4966645;28;20148;-71
2024/03/06 06:05:40;;;;;;;19.10;12.40;;;;;;;5.49;100.00;100734.88;4969720;28;20703;-72
2024/03/06 06:08:09;;;;;;;16.95;11.35;;;;;;;5.48;100.00;100734.91;4968572;28;20042;-72
2024/03/06 06:10:37;;;;;;;16.90;11.40;;;;;;;5.47;100.00;100749.81;4943500;28;20609;-71
2024/03/06 06:13:05;;;;;;;17.35;11.75;;;;;;;5.44;100.00;100752.50;4984157;28;20050;-71
2024/03/06 06:15:34;;;;;;;20.08;11.80;;;;;;;5.36;100.00;100737.75;4971174;28;20042;-73
2024/03/06 06:18:07;;;;;;;16.85;12.27;;;;;;;5.42;100.00;100756.91;4977964;28;20046;-73
2024/03/06 06:20:37;;;;;;;18.67;12.95;;;;;;;5.38;100.00;100749.09;4963458;28;20042;-72
2024/03/06 06:23:05;;;;;;;19.23;12.38;;;;;;;5.42;100.00;100756.91;4982627;28;20129;-72
2024/03/06 06:25:33;;;;;;;19.98;13.52;;;;;;;5.40;100.00;100760.44;4967215;28;20038;-72
2024/03/06 06:28:01;;;;;;;19.75;13.38;;;;;;;5.38;100.00;100762.22;4970197;28;20061;-72
2024/03/06 06:30:30;;;;;;;20.83;13.52;;;;;;;5.34;100.00;100757.97;4965046;28;20051;-71
2024/03/06 06:32:58;;;;;;;22.35;13.57;;;;;;;5.38;100.00;100765.72;4968860;28;20043;-72
2024/03/06 06:35:29;;;;;;;19.90;12.82;;;;;;;5.36;100.00;100762.25;4951813;28;20043;-72
2024/03/06 06:37:58;;;;;;;20.95;13.50;;;;;;;5.39;100.00;100771.84;4968834;28;20039;-73
2024/03/06 06:40:27;;;;;;;23.05;13.52;;;;;;;5.29;100.00;100758.91;4961840;28;20091;-73
2024/03/06 06:42:55;;;;;;;20.80;14.07;;;;;;;5.22;100.00;100749.41;5008108;28;20038;-72
2024/03/06 06:45:23;;;;;;;19.90;13.20;;;;;;;5.38;100.00;100770.13;5006082;28;20050;-72
2024/03/06 06:47:53;;;;;;;22.73;14.32;;;;;;;5.40;100.00;100773.56;4969053;28;20427;-71
2024/03/06 06:50:25;;;;;;;18.90;13.75;;;;;;;5.41;100.00;100770.94;4962326;28;20134;-74
2024/03/06 06:53:07;;;;;;;21.85;14.05;;;;;;;5.42;100.00;100774.41;4987106;28;20808;-73
2024/03/06 06:55:40;;;;;;;23.10;14.98;;;;;;;5.47;100.00;100775.19;4966334;28;20057;-72
2024/03/06 06:58:15;;;;;;;19.45;13.48;;;;;;;5.49;100.00;100776.03;4987134;28;20046;-72
2024/03/06 07:00:43;;;;;;;21.17;13.45;;;;;;;5.50;100.00;100783.03;4978533;28;20448;-73
2024/03/06 07:03:11;;;;;;;20.10;13.32;;;;;;;5.50;100.00;100777.78;4966273;28;20065;-72
2024/03/06 07:05:42;;;;;;;20.50;13.10;;;;;;;5.54;100.00;100784.66;4967602;28;20133;-73
2024/03/06 07:08:16;;;;;;;18.50;13.20;;;;;;;5.54;100.00;100776.78;4974511;28;20046;-72
2024/03/06 07:10:44;;;;;;;19.05;12.60;;;;;;;5.64;100.00;100786.22;4982279;28;20058;-72
2024/03/06 07:13:14;;;;;;;23.15;13.02;;;;;;;5.70;100.00;100780.84;4990154;28;20371;-73
2024/03/06 07:15:45;;;;;;;16.80;12.23;;;;;;;5.80;100.00;100795.53;4974548;28;20050;-72
2024/03/06 07:18:13;;;;;;;17.73;12.52;;;;;;;5.90;100.00;100807.59;4980556;28;20470;-72
2024/03/06 07:20:41;;;;;;;18.63;12.15;;;;;;;6.01;100.00;100795.97;4964242;28;20039;-73
2024/03/06 07:23:09;;;;;;;18.35;13.35;;;;;;;6.28;100.00;100812.03;4977277;28;20042;-73
2024/03/06 07:25:39;;;;;;;20.48;13.48;;;;;;;6.44;100.00;100814.31;4993325;28;20114;-71
2024/03/06 07:28:08;;;;;;;22.63;14.15;;;;;;;6.66;100.00;100826.91;4988062;28;20035;-73
2024/03/06 07:30:37;;;;;;;19.33;13.57;;;;;;;6.79;100.00;100826.59;4988563;28;20132;-72
2024/03/06 07:33:08;;;;;;;21.08;13.80;;;;;;;6.93;100.00;100827.97;4988760;28;20027;-72
2024/03/06 07:35:36;;;;;;;18.30;13.38;;;;;;;7.03;100.00;100833.91;4995202;28;20048;-73
2024/03/06 07:38:06;;;;;;;21.52;14.10;;;;;;;7.08;100.00;100829.38;5007769;28;20507;-71
2024/03/06 07:40:38;;;;;;;21.20;13.63;;;;;;;7.14;100.00;100833.59;4998745;28;20055;-73
2024/03/06 07:43:07;;;;;;;20.10;13.95;;;;;;;7.13;100.00;100819.56;4991398;28;20046;-71
2024/03/06 07:45:35;;;;;;;27.30;16.85;;;;;;;7.35;100.00;100831.28;4990751;28;20090;-72
2024/03/06 07:48:03;;;;;;;22.98;15.25;;;;;;;7.54;100.00;100850.09;4994675;28;20065;-72
2024/03/06 07:50:32;;;;;;;24.25;15.48;;;;;;;7.63;100.00;100841.06;4970038;28;20042;-73
2024/03/06 07:53:05;;;;;;;24.75;15.85;;;;;;;7.65;100.00;100841.91;4973478;28;20102;-72
2024/03/06 07:55:33;;;;;;;23.70;15.15;;;;;;;7.74;100.00;100847.75;4990903;28;20034;-74
2024/03/06 07:58:04;;;;;;;23.38;15.30;;;;;;;7.88;100.00;100855.28;4972640;28;20034;-74
2024/03/06 08:00:32;;;;;;;24.45;14.18;;;;;;;8.03;100.00;100860.09;4984276;28;20046;-72
2024/03/06 08:03:01;;;;;;;22.50;14.85;;;;;;;8.20;100.00;100856.97;4997236;28;20056;-70
2024/03/06 08:05:30;;;;;;;23.77;15.00;;;;;;;8.36;100.00;100870.59;4993235;28;20063;-72
2024/03/06 08:07:58;;;;;;;24.92;14.95;;;;;;;8.55;100.00;100869.13;5008631;28;20060;-71
2024/03/06 08:10:27;;;;;;;28.65;15.18;;;;;;;8.71;100.00;100859.81;4999181;28;20299;-71
2024/03/06 08:12:57;;;;;;;20.95;14.23;;;;;;;8.65;100.00;100867.09;4970125;28;20047;-71
2024/03/06 08:15:27;;;;;;;24.83;14.13;;;;;;;8.51;100.00;100871.91;4984568;28;20057;-72
2024/03/06 08:17:56;;;;;;;27.02;15.30;;;;;;;8.39;100.00;100873.16;4971779;28;20041;-72
2024/03/06 08:20:24;;;;;;;25.60;15.52;;;;;;;8.33;100.00;100879.50;4959506;28;20038;-73
2024/03/06 08:22:52;;;;;;;24.30;15.80;;;;;;;8.18;100.00;100872.00;4983064;28;20068;-75
2024/03/06 08:25:21;;;;;;;22.98;16.17;;;;;;;8.21;100.00;100878.94;4998287;28;20037;-72
2024/03/06 08:27:49;;;;;;;29.13;18.98;;;;;;;8.25;100.00;100876.19;5001037;28;20034;-71
2024/03/06 08:30:17;;;;;;;29.65;19.50;;;;;;;8.34;100.00;100880.38;4980445;28;20551;-72
2024/03/06 08:32:46;;;;;;;33.38;19.63;;;;;;;8.28;100.00;100872.59;4983028;28;20050;-73
2024/03/06 08:35:17;;;;;;;31.05;18.75;;;;;;;8.46;100.00;100893.19;4967284;28;20498;-72
2024/03/06 08:37:49;;;;;;;24.88;17.00;;;;;;;8.43;100.00;100885.34;4975715;28;20042;-72
2024/03/06 08:40:19;;;;;;;22.65;15.90;;;;;;;8.56;100.00;100888.47;4988771;28;20047;-71
2024/03/06 08:42:48;;;;;;;30.73;18.85;;;;;;;8.68;100.00;100885.44;5002490;28;20051;-72
2024/03/06 08:45:18;;;;;;;30.55;19.17;;;;;;;8.78;100.00;100885.13;4989566;28;20034;-74
2024/03/06 08:47:49;;;;;;;31.17;18.60;;;;;;;8.73;100.00;100876.47;4992472;28;21459;-72
2024/03/06 08:50:18;;;;;;;27.83;17.60;;;;;;;8.88;100.00;100892.75;4957402;28;20054;-71
2024/03/06 08:52:47;;;;;;;34.60;19.95;;;;;;;8.95;100.00;100891.66;4993461;28;20053;-70
2024/03/06 08:55:16;;;;;;;31.38;19.75;;;;;;;8.95;100.00;100899.56;4993326;28;20078;-74
2024/03/06 08:57:45;;;;;;;35.30;20.73;;;;;;;8.87;100.00;100880.47;4963470;28;20054;-71
2024/03/06 09:00:14;;;;;;;33.22;20.35;;;;;;;9.03;100.00;100900.19;4978738;28;20051;-70
2024/03/06 09:02:42;;;;;;;32.42;20.67;;;;;;;9.12;100.00;100907.81;4979959;28;20912;-76
2024/03/06 09:05:13;;;;;;;36.63;21.90;;;;;;;9.12;100.00;100910.47;4971178;28;20051;-72
2024/03/06 09:07:41;;;;;;;38.05;23.00;;;;;;;9.10;100.00;100907.00;5006586;28;20051;-72
2024/03/06 09:10:10;;;;;;;34.40;21.00;;;;;;;9.15;100.00;100899.75;4984964;28;20050;-71
2024/03/06 09:12:45;;;;;;;40.05;21.10;;;;;;;9.15;100.00;100910.34;4984152;28;20043;-72
2024/03/06 09:15:16;;;;;;;37.92;22.83;;;;;;;9.18;100.00;100906.72;4997225;28;20070;-72
2024/03/06 09:17:44;;;;;;;36.58;21.80;;;;;;;9.19;100.00;100906.69;5006135;28;20046;-72
2024/03/06 09:20:16;;;;;;;36.95;21.52;;;;;;;9.27;100.00;100912.59;4986314;28;20047;-72
2024/03/06 09:22:43;;;;;;;39.15;22.02;;;;;;;9.39;100.00;100909.53;4979300;28;20129;-73
2024/03/06 09:25:13;;;;;;;37.03;22.20;;;;;;;9.49;100.00;100915.34;4974754;28;20046;-74
2024/03/06 09:27:43;;;;;;;37.25;21.77;;;;;;;9.59;100.00;100911.50;4948333;28;20054;-73
2024/03/06 09:30:13;;;;;;;38.05;22.30;;;;;;;9.55;100.00;100901.06;4967683;28;20057;-72
2024/03/06 09:32:43;;;;;;;36.83;22.02;;;;;;;9.68;100.00;100910.31;4972756;28;20043;-72
2024/03/06 09:35:12;;;;;;;34.38;21.30;;;;;;;9.75;100.00;100912.69;4950171;28;20055;-73
2024/03/06 09:37:43;;;;;;;36.20;22.83;;;;;;;9.85;100.00;100914.09;4966459;28;20656;-72
2024/03/06 09:40:19;;;;;;;36.38;22.00;;;;;;;9.86;100.00;100896.44;4943329;28;20570;-71
2024/03/06 09:42:49;;;;;;;39.03;23.13;;;;;;;9.84;100.00;100904.41;4971851;28;20331;-73
2024/03/06 09:45:21;;;;;;;38.38;22.52;;;;;;;9.92;100.00;100909.41;4966140;28;20574;-75
2024/03/06 09:47:53;;;;;;;36.70;22.67;;;;;;;10.00;100.00;100906.50;4967373;28;20043;-72
2024/03/06 09:50:27;;;;;;;40.80;23.67;;;;;;;10.03;100.00;100909.06;4971221;28;21510;-72
2024/03/06 09:52:57;;;;;;;42.92;24.13;;;;;;;9.94;100.00;100910.22;5007117;28;20051;-71
2024/03/06 09:55:26;;;;;;;43.08;25.00;;;;;;;9.98;100.00;100906.56;5004381;28;20110;-70
2024/03/06 09:57:55;;;;;;;47.33;25.55;;;;;;;9.97;100.00;100911.91;4971624;28;20072;-71
2024/03/06 10:00:26;;;;;;;40.97;23.50;;;;;;;9.96;100.00;100908.41;4972181;28;20062;-70
2024/03/06 10:02:59;;;;;;;42.22;24.83;;;;;;;9.91;100.00;100910.38;4975132;28;20422;-72
2024/03/06 10:05:30;;;;;;;42.78;24.13;;;;;;;9.92;100.00;100909.41;4968715;28;20464;-73
2024/03/06 10:08:04;;;;;;;41.75;24.60;;;;;;;10.02;100.00;100908.19;4970121;28;20050;-72
2024/03/06 10:10:33;;;;;;;44.35;24.95;;;;;;;10.14;100.00;100912.16;4965936;28;20045;-74
2024/03/06 10:13:03;;;;;;;40.33;22.92;;;;;;;10.28;100.00;100914.31;4978604;28;20467;-73
2024/03/06 10:15:35;;;;;;;39.60;22.98;;;;;;;10.44;100.00;100911.03;4988366;28;20042;-73
2024/03/06 10:18:18;;;;;;;42.25;24.15;;;;;;;10.51;100.00;100912.53;4971399;28;20065;-73
2024/03/06 10:20:47;;;;;;;34.83;20.45;;;;;;;10.55;100.00;100918.56;4967132;28;20054;-72
2024/03/06 10:23:17;;;;;;;33.95;19.88;;;;;;;10.62;100.00;100914.78;4982684;28;20057;-72
2024/03/06 10:25:50;;;;;;;34.03;20.40;;;;;;;10.70;100.00;100912.69;4968726;28;20503;-72
2024/03/06 10:28:20;;;;;;;36.33;20.38;;;;;;;10.81;100.00;100910.47;4971663;28;20053;-73
2024/03/06 10:30:50;;;;;;;33.10;19.88;;;;;;;10.86;100.00;100903.19;4969118;28;20051;-72
2024/03/06 10:33:22;;;;;;;36.15;21.15;;;;;;;10.87;100.00;100896.97;4990129;28;20125;-73
2024/03/06 10:35:53;;;;;;;34.75;21.10;;;;;;;10.94;100.00;100910.84;4987635;28;20039;-72
2024/03/06 10:38:23;;;;;;;34.13;20.58;;;;;;;10.76;100.00;100909.78;4976420;28;20129;-73
2024/03/06 10:40:54;;;;;;;33.20;19.45;;;;;;;10.81;100.00;100921.06;4986786;28;20149;-72
2024/03/06 10:43:23;;;;;;;32.95;19.17;;;;;;;10.82;100.00;100906.91;4987722;28;20035;-75
2024/03/06 10:45:56;;;;;;;31.63;17.83;;;;;;;10.95;100.00;100927.59;5001593;28;20046;-73
2024/03/06 10:48:27;;;;;;;33.53;18.40;;;;;;;10.94;100.00;100920.59;4983841;28;20051;-73
2024/03/06 10:51:02;;;;;;;28.98;17.58;;;;;;;10.71;100.00;100909.09;4958529;28;20043;-74
2024/03/06 10:53:35;;;;;;;34.53;19.13;;;;;;;10.72;100.00;100921.41;4990976;28;20051;-74
2024/03/06 10:56:16;;;;;;;29.00;18.15;;;;;;;10.69;100.00;100894.22;4975657;28;20050;-71
2024/03/06 10:58:47;;;;;;;32.05;18.75;;;;;;;11.03;100.00;100921.06;4982497;28;20410;-73
2024/03/06 11:01:19;;;;;;;30.52;17.95;;;;;;;11.09;100.00;100919.97;4973139;28;20043;-73
2024/03/06 11:03:52;;;;;;;30.70;18.40;;;;;;;11.08;100.00;100907.63;4961691;28;20105;-73
2024/03/06 11:06:23;;;;;;;31.30;19.13;;;;;;;10.89;100.00;100918.09;4949024;28;20105;-72
2024/03/06 11:08:53;;;;;;;34.42;20.15;;;;;;;10.87;100.00;100915.50;4975106;28;20074;-72
2024/03/06 11:11:23;;;;;;;31.75;19.60;;;;;;;11.12;100.00;100926.00;4988247;28;20039;-72
2024/03/06 11:13:57;;;;;;;32.70;19.83;;;;;;;11.23;100.00;100928.22;4956089;28;20046;-73
2024/03/06 11:16:33;;;;;;;30.90;18.50;;;;;;;11.39;100.00;100931.09;4975024;28;20086;-72
2024/03/06 11:19:10;;;;;;;32.08;18.85;;;;;;;11.38;100.00;100938.19;4967763;28;20138;-72
2024/03/06 11:21:48;;;;;;;32.03;19.40;;;;;;;11.36;100.00;100937.38;4971957;28;20054;-72
2024/03/06 11:24:31;;;;;;;33.38;19.73;;;;;;;11.29;100.00;100941.22;4967520;28;20058;-73
2024/03/06 11:27:02;;;;;;;31.52;19.05;;;;;;;11.07;100.00;100937.72;4975943;28;20045;-73